Time;durP1;ratioP1;P1;durP2;ratioP2;P2;SDS_P1;SDS_P2;PMS_P1;PMS_P2;Temp;Humidity;BMP_temperature;BMP_pressure;BME280_temperature;BME280_humidity;BME280_pressure;Samples;Min_cycle;Max_cycle;Signal;HPM_P1;HPM_P2
2023/06/17 00:02:19;;;;;;;;;;;15.80;99.90;;;;;;5028060;28;20161;-68
2023/06/17 00:04:45;;;;;;;;;;;15.80;99.90;;;;;;5044402;28;19960;-69
2023/06/17 00:07:12;;;;;;;;;;;15.80;99.90;;;;;;5044602;28;19984;-69
2023/06/17 00:46:20;;;;;;;;;;;15.00;99.90;;;;;;4938313;29;19919;-68
2023/06/17 00:48:47;;;;;;;;;;;15.00;99.90;;;;;;5043961;28;19921;-68
2023/06/17 00:51:29;;;;;;;;;;;14.90;99.90;;;;;;5044469;28;19927;-68
2023/06/17 00:53:55;;;;;;;;;;;14.80;99.90;;;;;;5045055;28;19927;-68
2023/06/17 00:56:25;;;;;;;;;;;14.80;99.90;;;;;;5042035;28;19928;-68
2023/06/17 00:58:52;;;;;;;;;;;14.80;99.90;;;;;;5044601;28;20241;-67
2023/06/17 01:01:19;;;;;;;;;;;14.70;99.90;;;;;;5044238;28;19984;-68
2023/06/17 01:03:49;;;;;;;;;;;14.70;99.90;;;;;;5044447;28;19921;-68
2023/06/17 01:06:24;;;;;;;;;;;14.60;99.90;;;;;;5043054;28;19927;-68
2023/06/17 01:08:57;;;;;;;;;;;14.50;99.90;;;;;;5044419;28;20113;-68
2023/06/17 01:11:27;;;;;;;;;;;14.50;99.90;;;;;;5041633;28;19951;-68
2023/06/17 01:13:55;;;;;;;;;;;14.50;99.90;;;;;;5044347;28;19985;-69
2023/06/17 01:16:25;;;;;;;;;;;14.50;99.90;;;;;;5044032;28;19921;-68
2023/06/17 01:18:52;;;;;;;;;;;14.50;99.90;;;;;;5044430;28;19984;-69
2023/06/17 01:21:20;;;;;;;;;;;14.40;99.90;;;;;;5043528;28;19920;-68
2023/06/17 01:23:53;;;;;;;;;;;14.40;99.90;;;;;;5044256;28;20089;-68
2023/06/17 01:26:21;;;;;;;;;;;14.40;99.90;;;;;;5044079;28;19963;-69
2023/06/17 01:28:48;;;;;;;;;;;14.40;99.90;;;;;;5043841;28;20108;-68
2023/06/17 01:31:18;;;;;;;;;;;14.30;99.90;;;;;;5043337;28;19921;-68
2023/06/17 01:33:46;;;;;;;;;;;14.30;99.90;;;;;;5044008;28;19921;-68
2023/06/17 01:36:15;;;;;;;;;;;14.30;99.90;;;;;;5044079;28;19992;-67
2023/06/17 01:38:43;;;;;;;;;;;14.30;99.90;;;;;;5043819;28;20001;-68
2023/06/17 01:41:11;;;;;;;;;;;14.30;99.90;;;;;;5043486;28;20205;-68
2023/06/17 01:43:40;;;;;;;;;;;14.20;99.90;;;;;;5043722;28;19921;-68
2023/06/17 01:46:07;;;;;;;;;;;14.10;99.90;;;;;;5043628;28;19927;-68
2023/06/17 01:48:34;;;;;;;;;;;14.10;99.90;;;;;;5043585;28;19922;-68
2023/06/17 01:51:00;;;;;;;;;;;14.10;99.90;;;;;;5043262;28;19921;-68
2023/06/17 01:53:27;;;;;;;;;;;14.10;99.90;;;;;;5043632;28;19984;-69
2023/06/17 01:55:54;;;;;;;;;;;14.10;99.90;;;;;;5043536;28;19957;-68
2023/06/17 01:58:20;;;;;;;;;;;14.00;99.90;;;;;;5043855;28;19979;-69
2023/06/17 02:00:48;;;;;;;;;;;14.00;99.90;;;;;;5043002;28;19980;-69
2023/06/17 02:03:15;;;;;;;;;;;14.00;99.90;;;;;;5043433;28;19927;-68
2023/06/17 02:05:42;;;;;;;;;;;14.00;99.90;;;;;;5043592;28;19921;-68
2023/06/17 02:08:09;;;;;;;;;;;13.90;99.90;;;;;;5043590;28;19980;-67
2023/06/17 02:10:36;;;;;;;;;;;13.80;99.90;;;;;;5043153;28;19960;-68
2023/06/17 02:13:03;;;;;;;;;;;13.80;99.90;;;;;;5040899;28;19921;-68
2023/06/17 02:15:30;;;;;;;;;;;13.70;99.90;;;;;;5043028;28;19959;-68
2023/06/17 02:17:58;;;;;;;;;;;13.60;99.90;;;;;;5043216;28;20259;-67
2023/06/17 02:20:25;;;;;;;;;;;13.60;99.90;;;;;;5042955;28;20000;-68
2023/06/17 02:22:51;;;;;;;;;;;13.50;99.90;;;;;;5043288;28;20004;-68
2023/06/17 02:25:18;;;;;;;;;;;13.50;99.90;;;;;;5043081;28;19988;-68
2023/06/17 02:27:45;;;;;;;;;;;13.50;99.90;;;;;;5043372;28;20117;-68
2023/06/17 02:30:12;;;;;;;;;;;13.50;99.90;;;;;;5042842;28;19992;-68
2023/06/17 02:32:39;;;;;;;;;;;13.50;99.90;;;;;;5042721;28;19932;-70
2023/06/17 02:35:08;;;;;;;;;;;13.50;99.90;;;;;;5023242;28;19988;-68
2023/06/17 02:37:36;;;;;;;;;;;13.40;99.90;;;;;;5023623;28;19933;-68
2023/06/17 02:40:05;;;;;;;;;;;13.40;99.90;;;;;;5024206;28;19984;-68
2023/06/17 02:42:32;;;;;;;;;;;13.40;99.90;;;;;;5027168;28;20152;-68
2023/06/17 02:44:59;;;;;;;;;;;13.30;99.90;;;;;;5046024;28;20004;-68
2023/06/17 02:47:25;;;;;;;;;;;13.30;99.90;;;;;;5047418;28;19988;-68
2023/06/17 02:49:52;;;;;;;;;;;13.30;99.90;;;;;;5046948;28;19921;-68
2023/06/17 02:52:21;;;;;;;;;;;13.30;99.90;;;;;;5031297;28;19922;-68
2023/06/17 02:54:47;;;;;;;;;;;13.20;99.90;;;;;;5043825;28;19921;-68
2023/06/17 02:57:15;;;;;;;;;;;13.20;99.90;;;;;;5047226;28;19921;-68
2023/06/17 02:59:42;;;;;;;;;;;13.20;99.90;;;;;;5047118;28;19987;-68
2023/06/17 03:02:09;;;;;;;;;;;13.20;99.90;;;;;;5046263;28;19921;-68
2023/06/17 03:04:35;;;;;;;;;;;13.20;99.90;;;;;;5046955;28;19921;-68
2023/06/17 03:07:02;;;;;;;;;;;13.20;99.90;;;;;;5046924;28;20149;-68
2023/06/17 03:09:30;;;;;;;;;;;13.10;99.90;;;;;;5046666;28;20333;-68
2023/06/17 03:11:59;;;;;;;;;;;13.10;99.90;;;;;;5043647;28;19928;-68
2023/06/17 03:14:26;;;;;;;;;;;13.10;99.90;;;;;;5046769;28;19920;-68
2023/06/17 03:16:52;;;;;;;;;;;13.10;99.90;;;;;;5046711;28;19921;-68
2023/06/17 03:19:19;;;;;;;;;;;13.10;99.90;;;;;;5046906;28;19927;-68
2023/06/17 03:21:47;;;;;;;;;;;13.00;99.90;;;;;;5045887;28;19985;-68
2023/06/17 03:24:13;;;;;;;;;;;13.00;99.90;;;;;;5046491;28;19922;-68
2023/06/17 03:26:41;;;;;;;;;;;13.00;99.90;;;;;;5043761;28;20469;-68
2023/06/17 03:29:08;;;;;;;;;;;13.00;99.90;;;;;;5046464;28;19956;-68
2023/06/17 03:31:35;;;;;;;;;;;13.00;99.90;;;;;;5045889;28;20472;-68
2023/06/17 03:34:01;;;;;;;;;;;12.90;99.90;;;;;;5046170;28;19928;-68
2023/06/17 03:36:29;;;;;;;;;;;13.00;99.90;;;;;;5046282;28;19956;-68
2023/06/17 03:38:56;;;;;;;;;;;12.90;99.90;;;;;;5046034;28;20016;-68
2023/06/17 03:41:22;;;;;;;;;;;12.70;99.90;;;;;;5045042;28;19988;-68
2023/06/17 03:43:50;;;;;;;;;;;12.70;99.90;;;;;;5046182;28;19988;-68
2023/06/17 03:46:17;;;;;;;;;;;12.60;99.90;;;;;;5046215;28;19920;-68
2023/06/17 03:48:44;;;;;;;;;;;12.60;99.90;;;;;;5046533;28;19995;-68
2023/06/17 03:51:11;;;;;;;;;;;12.60;99.90;;;;;;5045064;28;20152;-68
2023/06/17 03:53:37;;;;;;;;;;;12.60;99.90;;;;;;5045897;28;19921;-68
2023/06/17 03:56:04;;;;;;;;;;;12.60;99.90;;;;;;5046156;28;19988;-68
2023/06/17 03:58:31;;;;;;;;;;;12.60;99.90;;;;;;5046040;28;19921;-68
2023/06/17 04:00:59;;;;;;;;;;;12.60;99.90;;;;;;5045177;28;19964;-68
2023/06/17 04:03:26;;;;;;;;;;;12.60;99.90;;;;;;5045797;28;20226;-68
2023/06/17 04:05:53;;;;;;;;;;;12.60;99.90;;;;;;5045883;28;19925;-68
2023/06/17 04:08:19;;;;;;;;;;;12.60;99.90;;;;;;5045812;28;19921;-68
2023/06/17 04:10:47;;;;;;;;;;;12.70;99.90;;;;;;5045017;28;19921;-69
2023/06/17 04:13:15;;;;;;;;;;;12.70;99.90;;;;;;5043284;28;20227;-68
2023/06/17 04:15:42;;;;;;;;;;;12.70;99.90;;;;;;5045485;28;19952;-68
2023/06/17 04:18:10;;;;;;;;;;;12.80;99.90;;;;;;5045628;28;20148;-68
2023/06/17 04:20:36;;;;;;;;;;;12.80;99.90;;;;;;5044900;28;19921;-68
2023/06/17 04:23:03;;;;;;;;;;;12.90;99.90;;;;;;5026696;28;19948;-68
2023/06/17 04:25:32;;;;;;;;;;;12.90;99.90;;;;;;5025469;28;19921;-68
2023/06/17 04:28:01;;;;;;;;;;;13.00;99.90;;;;;;5025825;28;19921;-68
2023/06/17 04:30:27;;;;;;;;;;;13.00;99.90;;;;;;5024757;28;19928;-68
2023/06/17 04:32:58;;;;;;;;;;;13.10;99.90;;;;;;5025717;28;19984;-68
2023/06/17 04:35:26;;;;;;;;;;;13.10;99.90;;;;;;5025065;28;20225;-67
2023/06/17 04:37:54;;;;;;;;;;;13.10;99.90;;;;;;5025574;28;19929;-68
2023/06/17 04:40:21;;;;;;;;;;;13.10;99.90;;;;;;5024829;28;19922;-68
2023/06/17 04:42:48;;;;;;;;;;;13.10;99.90;;;;;;5025422;28;19989;-67
2023/06/17 04:45:15;;;;;;;;;;;13.10;99.90;;;;;;5025047;28;20280;-68
2023/06/17 04:47:42;;;;;;;;;;;13.20;99.90;;;;;;5025167;28;19921;-68
2023/06/17 04:50:09;;;;;;;;;;;13.20;99.90;;;;;;5024479;28;19944;-67
2023/06/17 04:52:37;;;;;;;;;;;13.30;99.90;;;;;;5039082;28;19983;-68
2023/06/17 04:55:04;;;;;;;;;;;13.30;99.90;;;;;;5044774;28;19928;-68
2023/06/17 04:57:31;;;;;;;;;;;13.40;99.90;;;;;;5044810;28;19988;-68
2023/06/17 04:59:57;;;;;;;;;;;13.50;99.90;;;;;;5044792;28;19921;-68
2023/06/17 05:02:24;;;;;;;;;;;13.50;99.90;;;;;;5043310;28;20172;-68
2023/06/17 05:04:50;;;;;;;;;;;13.60;99.90;;;;;;5044377;28;19987;-68
2023/06/17 05:07:17;;;;;;;;;;;13.70;99.90;;;;;;5044811;28;19925;-68
2023/06/17 05:09:45;;;;;;;;;;;13.80;99.90;;;;;;5044607;28;19921;-68
2023/06/17 05:12:12;;;;;;;;;;;13.90;99.90;;;;;;5043671;28;19927;-68
2023/06/17 05:14:38;;;;;;;;;;;14.00;99.90;;;;;;5044111;28;19984;-68
2023/06/17 05:17:05;;;;;;;;;;;14.10;99.90;;;;;;5044439;28;19957;-69
2023/06/17 05:19:32;;;;;;;;;;;14.20;99.90;;;;;;5044509;28;19921;-68
2023/06/17 05:21:58;;;;;;;;;;;14.30;99.90;;;;;;5043781;28;19988;-68
2023/06/17 05:24:25;;;;;;;;;;;14.40;99.90;;;;;;5044058;28;19984;-67
2023/06/17 05:26:53;;;;;;;;;;;14.40;99.90;;;;;;5044204;28;19995;-68
2023/06/17 05:29:20;;;;;;;;;;;14.50;99.90;;;;;;5044348;28;20112;-68
2023/06/17 05:31:46;;;;;;;;;;;14.60;99.90;;;;;;5043472;28;19925;-68
2023/06/17 05:34:13;;;;;;;;;;;14.70;99.90;;;;;;5044060;28;20154;-68
2023/06/17 05:36:40;;;;;;;;;;;14.90;99.90;;;;;;5043845;28;20272;-68
2023/06/17 05:39:06;;;;;;;;;;;15.00;99.90;;;;;;5044020;28;19996;-68
2023/06/17 05:41:33;;;;;;;;;;;15.20;99.90;;;;;;5043440;28;19988;-68
2023/06/17 05:44:01;;;;;;;;;;;15.40;99.90;;;;;;5044065;28;20170;-68
2023/06/17 05:46:27;;;;;;;;;;;15.50;99.90;;;;;;5043857;28;19925;-68
2023/06/17 05:48:54;;;;;;;;;;;15.60;99.90;;;;;;5043714;28;19921;-68
2023/06/17 05:51:21;;;;;;;;;;;15.60;99.90;;;;;;5042935;28;19968;-68
2023/06/17 05:53:47;;;;;;;;;;;15.80;99.90;;;;;;5043627;28;20263;-69
2023/06/17 05:56:14;;;;;;;;;;;15.90;99.90;;;;;;5043365;28;19984;-68
2023/06/17 05:58:41;;;;;;;;;;;16.00;99.90;;;;;;5043927;28;19995;-70
2023/06/17 06:01:09;;;;;;;;;;;16.10;99.90;;;;;;5042887;28;19963;-68
2023/06/17 06:03:35;;;;;;;;;;;16.30;99.90;;;;;;5043613;28;19928;-68
2023/06/17 06:06:02;;;;;;;;;;;16.50;99.90;;;;;;5043100;28;19943;-68
2023/06/17 06:08:28;;;;;;;;;;;16.60;99.90;;;;;;5043694;28;19927;-68
2023/06/17 06:10:55;;;;;;;;;;;16.70;99.90;;;;;;5042852;28;19921;-68
2023/06/17 06:13:24;;;;;;;;;;;16.70;99.90;;;;;;5040661;28;20217;-68
2023/06/17 06:15:50;;;;;;;;;;;16.70;99.90;;;;;;5043264;28;19927;-67
2023/06/17 06:18:18;;;;;;;;;;;16.80;99.90;;;;;;5043228;28;20291;-68
2023/06/17 06:20:45;;;;;;;;;;;16.80;99.90;;;;;;5042966;28;19921;-68
2023/06/17 06:23:11;;;;;;;;;;;16.80;99.90;;;;;;5043005;28;20276;-68
2023/06/17 06:25:38;;;;;;;;;;;16.90;99.90;;;;;;5042893;28;19956;-68
2023/06/17 06:28:05;;;;;;;;;;;17.00;99.90;;;;;;5043336;28;19921;-69
2023/06/17 06:30:32;;;;;;;;;;;17.20;99.90;;;;;;5042437;28;20213;-68
2023/06/17 06:32:59;;;;;;;;;;;17.40;99.90;;;;;;5043289;28;19988;-68
2023/06/17 06:35:27;;;;;;;;;;;17.50;99.90;;;;;;5042876;28;19921;-68
2023/06/17 06:37:54;;;;;;;;;;;17.60;99.90;;;;;;5043260;28;19983;-68
2023/06/17 06:40:20;;;;;;;;;;;17.70;99.90;;;;;;5042433;28;19981;-68
2023/06/17 06:42:47;;;;;;;;;;;17.80;99.90;;;;;;5042995;28;19954;-69
2023/06/17 06:45:13;;;;;;;;;;;18.00;99.90;;;;;;5043159;28;19921;-68
2023/06/17 06:47:40;;;;;;;;;;;18.10;99.90;;;;;;5042847;28;19988;-69
2023/06/17 06:50:07;;;;;;;;;;;18.30;99.90;;;;;;5042581;28;19989;-68
2023/06/17 06:52:35;;;;;;;;;;;18.50;99.90;;;;;;5042820;28;19923;-68
2023/06/17 06:55:01;;;;;;;;;;;18.60;99.90;;;;;;5042741;28;20136;-68
2023/06/17 06:57:28;;;;;;;;;;;18.70;99.90;;;;;;5042950;28;19984;-68
2023/06/17 06:59:55;;;;;;;;;;;18.70;99.90;;;;;;5043120;28;19921;-67
2023/06/17 07:02:21;;;;;;;;;;;18.80;99.90;;;;;;5042151;28;19984;-68
2023/06/17 07:04:48;;;;;;;;;;;19.00;99.90;;;;;;5042888;28;19980;-69
2023/06/17 07:07:15;;;;;;;;;;;19.10;99.90;;;;;;5042682;28;19925;-68
2023/06/17 07:09:43;;;;;;;;;;;19.20;99.90;;;;;;5042292;28;19996;-68
2023/06/17 07:12:11;;;;;;;;;;;19.30;99.90;;;;;;5039895;28;19921;-70
2023/06/17 07:14:38;;;;;;;;;;;19.40;99.90;;;;;;5042395;28;19921;-68
2023/06/17 07:17:04;;;;;;;;;;;19.50;99.90;;;;;;5042537;28;20223;-68
2023/06/17 07:19:31;;;;;;;;;;;19.60;99.90;;;;;;5022818;28;19964;-68
2023/06/17 07:21:57;;;;;;;;;;;19.70;99.90;;;;;;5040425;28;20116;-68
2023/06/17 07:24:24;;;;;;;;;;;19.80;99.90;;;;;;5042692;28;19927;-68
2023/06/17 07:26:52;;;;;;;;;;;20.00;99.90;;;;;;5044722;28;19984;-68
2023/06/17 07:29:18;;;;;;;;;;;20.10;99.90;;;;;;5046087;28;19921;-68
2023/06/17 07:31:45;;;;;;;;;;;20.10;99.90;;;;;;5045696;28;19987;-68
2023/06/17 07:34:12;;;;;;;;;;;20.20;99.90;;;;;;5046365;28;20076;-68
2023/06/17 07:36:38;;;;;;;;;;;20.40;99.90;;;;;;5045838;28;19927;-68
2023/06/17 07:39:05;;;;;;;;;;;20.30;99.90;;;;;;5046207;28;19928;-68
2023/06/17 07:41:32;;;;;;;;;;;20.40;99.90;;;;;;5045055;28;19921;-68
2023/06/17 07:43:59;;;;;;;;;;;20.50;99.90;;;;;;5046114;28;19984;-68
2023/06/17 07:46:26;;;;;;;;;;;20.60;99.90;;;;;;5045866;28;19943;-68
2023/06/17 07:48:53;;;;;;;;;;;20.70;99.90;;;;;;5046156;28;19999;-68
2023/06/17 07:51:19;;;;;;;;;;;20.80;99.90;;;;;;5045004;28;19996;-69
2023/06/17 07:53:46;;;;;;;;;;;20.90;99.90;;;;;;5045637;28;19921;-69
2023/06/17 07:56:13;;;;;;;;;;;21.00;99.90;;;;;;5045486;28;20230;-69
2023/06/17 07:58:41;;;;;;;;;;;21.10;99.90;;;;;;5045838;28;19992;-68
2023/06/17 08:01:09;;;;;;;;;;;21.00;99.90;;;;;;5044820;28;20236;-68
2023/06/17 08:03:35;;;;;;;;;;;21.10;99.90;;;;;;5045722;28;19927;-67
2023/06/17 08:06:03;;;;;;;;;;;21.20;99.90;;;;;;5045316;28;19921;-68
2023/06/17 08:08:30;;;;;;;;;;;21.20;99.90;;;;;;5045619;28;19927;-68
2023/06/17 08:10:56;;;;;;;;;;;21.30;99.90;;;;;;5044759;28;19921;-68
2023/06/17 08:13:24;;;;;;;;;;;21.30;99.90;;;;;;5043042;28;19928;-68
2023/06/17 08:15:51;;;;;;;;;;;21.50;99.90;;;;;;5052818;28;19921;-68
2023/06/17 08:18:19;;;;;;;;;;;21.60;99.90;;;;;;5025495;28;19945;-68
2023/06/17 08:20:46;;;;;;;;;;;21.50;99.90;;;;;;5026107;28;20227;-68
2023/06/17 08:23:12;;;;;;;;;;;21.60;99.90;;;;;;5039727;28;19988;-68
2023/06/17 08:25:40;;;;;;;;;;;21.60;99.90;;;;;;5044824;28;20253;-68
2023/06/17 08:28:06;;;;;;;;;;;21.70;99.90;;;;;;5045153;28;19944;-68
2023/06/17 08:30:33;;;;;;;;;;;21.90;99.90;;;;;;5044290;28;19961;-68
2023/06/17 08:32:59;;;;;;;;;;;21.90;99.90;;;;;;5044999;28;19968;-68
2023/06/17 08:35:27;;;;;;;;;;;22.00;99.90;;;;;;5044766;28;19967;-68
2023/06/17 08:37:54;;;;;;;;;;;22.10;99.90;;;;;;5043615;28;20124;-69
2023/06/17 08:40:22;;;;;;;;;;;22.10;99.90;;;;;;5044312;28;20153;-68
2023/06/17 08:42:50;;;;;;;;;;;22.10;99.90;;;;;;5045040;28;19921;-68
2023/06/17 08:45:16;;;;;;;;;;;22.20;99.90;;;;;;5044652;28;20120;-68
2023/06/17 08:47:43;;;;;;;;;;;22.30;99.90;;;;;;5044628;28;20256;-68
2023/06/17 08:50:11;;;;;;;;;;;22.40;99.90;;;;;;5044189;28;19952;-68
2023/06/17 08:52:39;;;;;;;;;;;22.50;99.90;;;;;;5044275;28;19992;-69
2023/06/17 08:55:07;;;;;;;;;;;22.40;99.90;;;;;;5044630;28;20120;-68
2023/06/17 08:57:33;;;;;;;;;;;22.40;99.90;;;;;;5045277;28;19943;-68
2023/06/17 09:00:00;;;;;;;;;;;22.50;99.90;;;;;;5044247;28;19988;-69
2023/06/17 09:02:27;;;;;;;;;;;22.50;97.80;;;;;;5044274;28;19925;-69
2023/06/17 09:04:54;;;;;;;;;;;22.60;99.80;;;;;;5044036;28;19921;-69
2023/06/17 09:07:22;;;;;;;;;;;22.60;99.30;;;;;;5024840;28;19922;-68
2023/06/17 09:09:53;;;;;;;;;;;22.70;97.30;;;;;;5034800;28;19927;-68
2023/06/17 09:12:19;;;;;;;;;;;22.80;97.30;;;;;;5043349;28;19921;-69
2023/06/17 09:14:46;;;;;;;;;;;22.90;97.30;;;;;;5043715;28;20259;-69
2023/06/17 09:17:25;;;;;;;;;;;23.00;97.90;;;;;;5060133;28;19920;-68
2023/06/17 09:19:54;;;;;;;;;;;23.10;97.80;;;;;;5064139;28;20059;-69
2023/06/17 09:22:21;;;;;;;;;;;23.20;98.20;;;;;;5063509;28;20089;-69
2023/06/17 09:24:47;;;;;;;;;;;23.40;97.70;;;;;;5063619;28;19921;-68
2023/06/17 09:27:22;;;;;;;;;;;23.50;97.20;;;;;;5052088;28;19929;-69
2023/06/17 09:30:04;;;;;;;;;;;23.60;96.40;;;;;;5064089;28;19921;-68
2023/06/17 09:32:37;;;;;;;;;;;23.60;95.50;;;;;;5055061;28;19928;-68
2023/06/17 09:35:05;;;;;;;;;;;23.60;96.20;;;;;;5034151;28;19921;-69
2023/06/17 09:37:32;;;;;;;;;;;23.60;96.70;;;;;;5041777;28;19921;-68
2023/06/17 09:39:59;;;;;;;;;;;23.50;96.90;;;;;;5043929;28;19927;-69
2023/06/17 09:42:31;;;;;;;;;;;23.50;97.30;;;;;;5043805;28;20224;-68
2023/06/17 09:45:02;;;;;;;;;;;23.60;97.00;;;;;;5043545;28;19925;-68
2023/06/17 09:47:32;;;;;;;;;;;23.60;96.70;;;;;;5044082;28;19983;-69
2023/06/17 09:50:02;;;;;;;;;;;23.60;97.00;;;;;;5058921;28;19959;-68
2023/06/17 09:52:29;;;;;;;;;;;23.60;97.30;;;;;;5054560;28;19921;-69
2023/06/17 09:54:57;;;;;;;;;;;23.60;96.80;;;;;;5063683;28;19943;-68
2023/06/17 09:57:26;;;;;;;;;;;23.60;96.80;;;;;;5063520;28;19943;-68
2023/06/17 09:59:56;;;;;;;;;;;23.50;97.10;;;;;;5054633;28;19921;-68
2023/06/17 10:02:23;;;;;;;;;;;23.40;96.60;;;;;;5038631;28;19929;-69
2023/06/17 10:04:55;;;;;;;;;;;23.40;96.70;;;;;;5042871;28;19925;-68
2023/06/17 10:07:24;;;;;;;;;;;23.30;97.10;;;;;;5046749;28;20468;-68
2023/06/17 10:09:52;;;;;;;;;;;23.40;96.30;;;;;;5060027;28;19935;-69
2023/06/17 10:12:19;;;;;;;;;;;23.60;96.70;;;;;;5050885;28;19936;-69
2023/06/17 10:14:47;;;;;;;;;;;23.70;96.40;;;;;;5047868;28;20134;-68
2023/06/17 10:17:17;;;;;;;;;;;23.90;95.90;;;;;;5043066;28;19980;-69
2023/06/17 10:19:44;;;;;;;;;;;24.10;95.50;;;;;;5053120;28;20235;-68
2023/06/17 10:22:12;;;;;;;;;;;24.20;95.60;;;;;;5062336;28;19943;-68
2023/06/17 10:24:38;;;;;;;;;;;24.40;95.70;;;;;;5062803;28;20201;-68
2023/06/17 10:27:06;;;;;;;;;;;24.50;96.20;;;;;;5062754;28;19927;-68
2023/06/17 10:29:33;;;;;;;;;;;24.70;95.40;;;;;;5062841;28;19927;-68
2023/06/17 10:32:10;;;;;;;;;;;24.90;94.40;;;;;;5061918;28;19928;-69
2023/06/17 10:34:38;;;;;;;;;;;25.00;93.60;;;;;;5049034;28;20151;-69
2023/06/17 10:37:05;;;;;;;;;;;24.90;92.90;;;;;;5044298;28;19920;-69
2023/06/17 10:39:31;;;;;;;;;;;25.00;93.00;;;;;;5049660;28;19968;-69
2023/06/17 10:42:00;;;;;;;;;;;25.00;92.60;;;;;;5059578;28;19976;-69
2023/06/17 10:44:30;;;;;;;;;;;24.90;92.50;;;;;;5060186;28;20115;-68
2023/06/17 10:46:57;;;;;;;;;;;24.80;92.50;;;;;;5062935;28;19975;-68
2023/06/17 10:49:24;;;;;;;;;;;24.70;92.70;;;;;;5062564;28;19920;-68
2023/06/17 10:51:52;;;;;;;;;;;24.50;92.10;;;;;;5061956;28;19991;-68
2023/06/17 10:54:26;;;;;;;;;;;24.50;91.10;;;;;;5062579;28;19942;-69
2023/06/17 10:56:53;;;;;;;;;;;24.60;91.90;;;;;;5054894;28;19921;-68
2023/06/17 10:59:23;;;;;;;;;;;24.70;92.00;;;;;;5042775;28;19928;-68
2023/06/17 11:01:50;;;;;;;;;;;24.80;92.90;;;;;;5051727;28;20209;-68
2023/06/17 11:04:17;;;;;;;;;;;25.10;92.20;;;;;;5066552;28;19935;-69
2023/06/17 11:06:45;;;;;;;;;;;25.30;92.20;;;;;;5057095;28;20161;-68
2023/06/17 11:09:13;;;;;;;;;;;25.40;90.90;;;;;;5046172;28;20217;-68
2023/06/17 11:11:41;;;;;;;;;;;25.60;90.30;;;;;;5037246;28;19921;-68
2023/06/17 11:14:12;;;;;;;;;;;25.70;90.20;;;;;;5030313;28;19964;-68
2023/06/17 11:16:38;;;;;;;;;;;25.90;83.50;;;;;;5026144;28;19956;-69
2023/06/17 11:19:06;;;;;;;;;;;26.00;82.20;;;;;;5026619;28;19996;-70
2023/06/17 11:21:33;;;;;;;;;;;26.00;82.00;;;;;;5027142;28;19921;-70
2023/06/17 11:24:00;;;;;;;;;;;26.20;83.70;;;;;;5048520;28;19921;-68
2023/06/17 11:26:27;;;;;;;;;;;26.30;83.20;;;;;;5045997;28;19984;-68
2023/06/17 11:28:54;;;;;;;;;;;26.50;83.90;;;;;;5051211;28;19996;-69
2023/06/17 11:31:25;;;;;;;;;;;26.70;84.20;;;;;;5043953;28;19921;-69
2023/06/17 11:33:56;;;;;;;;;;;26.90;81.00;;;;;;5045419;28;19921;-69
2023/06/17 11:36:23;;;;;;;;;;;27.10;81.80;;;;;;5045329;28;20116;-68
2023/06/17 11:38:50;;;;;;;;;;;27.20;82.50;;;;;;5051245;28;19988;-69
2023/06/17 11:41:17;;;;;;;;;;;27.30;83.90;;;;;;5065219;28;19928;-69
2023/06/17 11:43:45;;;;;;;;;;;27.40;81.80;;;;;;5066149;28;19927;-69
2023/06/17 11:46:12;;;;;;;;;;;27.60;79.60;;;;;;5063279;28;19927;-68
2023/06/17 11:48:39;;;;;;;;;;;27.70;79.60;;;;;;5046643;28;20272;-69
2023/06/17 11:51:06;;;;;;;;;;;27.90;81.20;;;;;;5045148;28;20165;-68
2023/06/17 11:53:36;;;;;;;;;;;27.90;80.90;;;;;;5045317;28;20098;-68
2023/06/17 11:56:05;;;;;;;;;;;28.00;81.70;;;;;;5045254;28;20116;-68
2023/06/17 11:58:32;;;;;;;;;;;27.90;80.10;;;;;;5045333;28;19956;-68
2023/06/17 12:01:00;;;;;;;;;;;28.00;81.10;;;;;;5044820;28;19921;-68
2023/06/17 12:03:27;;;;;;;;;;;28.10;80.10;;;;;;5043443;28;19971;-69
2023/06/17 12:05:54;;;;;;;;;;;28.10;77.70;;;;;;5044837;28;20105;-68
2023/06/17 12:08:21;;;;;;;;;;;27.80;77.80;;;;;;5045204;28;19927;-68
2023/06/17 12:10:47;;;;;;;;;;;27.50;78.10;;;;;;5044570;28;19985;-68
2023/06/17 12:13:15;;;;;;;;;;;27.30;79.40;;;;;;5044444;28;19921;-68
2023/06/17 12:15:42;;;;;;;;;;;27.10;80.10;;;;;;5044730;28;20148;-68
2023/06/17 12:18:11;;;;;;;;;;;27.10;80.20;;;;;;5044902;28;19921;-69
2023/06/17 12:20:38;;;;;;;;;;;27.10;81.20;;;;;;5041089;28;20251;-69
2023/06/17 12:23:04;;;;;;;;;;;27.20;80.40;;;;;;5044985;28;20205;-69
2023/06/17 12:25:32;;;;;;;;;;;27.20;80.50;;;;;;5044884;28;19984;-70
2023/06/17 12:27:59;;;;;;;;;;;27.20;80.80;;;;;;5045091;28;20156;-69
2023/06/17 12:30:26;;;;;;;;;;;27.20;80.60;;;;;;5043799;28;19984;-68
2023/06/17 12:32:53;;;;;;;;;;;27.20;79.20;;;;;;5044464;28;19988;-67
2023/06/17 12:35:22;;;;;;;;;;;26.80;78.90;;;;;;5044841;28;19921;-68
2023/06/17 12:37:51;;;;;;;;;;;26.60;81.20;;;;;;5044258;28;19924;-68
2023/06/17 12:40:18;;;;;;;;;;;26.90;80.60;;;;;;5044630;28;19921;-68
2023/06/17 12:42:44;;;;;;;;;;;27.10;78.60;;;;;;5045002;28;19933;-69
2023/06/17 12:45:12;;;;;;;;;;;27.30;78.80;;;;;;5042415;28;20113;-68
2023/06/17 12:47:39;;;;;;;;;;;27.40;79.20;;;;;;5044723;28;19928;-69
2023/06/17 12:50:06;;;;;;;;;;;27.20;78.40;;;;;;5041495;28;20240;-69
2023/06/17 12:52:36;;;;;;;;;;;26.90;79.30;;;;;;5044810;28;19921;-68
2023/06/17 12:55:04;;;;;;;;;;;26.70;80.30;;;;;;5044853;28;19928;-69
2023/06/17 12:57:31;;;;;;;;;;;26.90;80.20;;;;;;5044926;28;19921;-68
2023/06/17 12:59:59;;;;;;;;;;;27.20;79.40;;;;;;5045049;28;19921;-69
2023/06/17 13:02:26;;;;;;;;;;;27.50;79.70;;;;;;5044679;28;19921;-68
2023/06/17 13:04:53;;;;;;;;;;;27.60;78.70;;;;;;5044436;28;20268;-68
2023/06/17 13:07:20;;;;;;;;;;;27.70;78.60;;;;;;5044355;28;19928;-68
2023/06/17 13:09:48;;;;;;;;;;;27.70;76.70;;;;;;5044552;28;19924;-70
2023/06/17 13:12:15;;;;;;;;;;;27.60;76.40;;;;;;5043812;28;19944;-68
2023/06/17 13:14:41;;;;;;;;;;;27.70;77.30;;;;;;5044293;28;19928;-68
2023/06/17 13:17:09;;;;;;;;;;;27.90;77.40;;;;;;5044335;28;19992;-68
2023/06/17 13:19:35;;;;;;;;;;;28.30;77.30;;;;;;5044467;28;19928;-68
2023/06/17 13:22:02;;;;;;;;;;;28.50;77.90;;;;;;5043830;28;19943;-68
2023/06/17 13:24:29;;;;;;;;;;;28.50;77.10;;;;;;5043629;28;19921;-68
2023/06/17 13:26:57;;;;;;;;;;;28.30;75.00;;;;;;5044322;28;19921;-68
2023/06/17 13:29:24;;;;;;;;;;;27.80;75.90;;;;;;5043987;28;19953;-68
2023/06/17 13:31:51;;;;;;;;;;;27.50;76.70;;;;;;5043731;28;19988;-67
2023/06/17 13:34:17;;;;;;;;;;;27.50;77.90;;;;;;5044148;28;19921;-67
2023/06/17 13:36:46;;;;;;;;;;;27.70;77.10;;;;;;5043951;28;19948;-67
2023/06/17 13:39:13;;;;;;;;;;;28.00;75.80;;;;;;5044224;28;20151;-68
2023/06/17 13:41:39;;;;;;;;;;;28.40;76.30;;;;;;5043137;28;19963;-67
2023/06/17 13:44:08;;;;;;;;;;;28.50;76.70;;;;;;5041455;28;20004;-67
2023/06/17 13:46:35;;;;;;;;;;;28.40;75.90;;;;;;5043885;28;20049;-68
2023/06/17 13:49:02;;;;;;;;;;;28.20;76.00;;;;;;5043975;28;19921;-67
2023/06/17 13:51:29;;;;;;;;;;;28.20;75.90;;;;;;5043192;28;20004;-68
2023/06/17 13:53:55;;;;;;;;;;;28.50;75.00;;;;;;5043350;28;20000;-67
2023/06/17 13:56:22;;;;;;;;;;;28.50;75.40;;;;;;5043714;28;19955;-68
2023/06/17 13:58:49;;;;;;;;;;;28.30;73.80;;;;;;5043998;28;19921;-67
2023/06/17 14:01:17;;;;;;;;;;;27.80;73.90;;;;;;5042962;28;19927;-68
2023/06/17 14:03:43;;;;;;;;;;;27.80;74.30;;;;;;5023816;28;19921;-68
2023/06/17 14:06:10;;;;;;;;;;;27.90;75.50;;;;;;5023547;28;20227;-68
2023/06/17 14:08:37;;;;;;;;;;;28.00;72.00;;;;;;5043346;28;19921;-68
2023/06/17 14:11:03;;;;;;;;;;;28.10;74.00;;;;;;5042972;28;19988;-68
2023/06/17 14:13:30;;;;;;;;;;;28.20;72.40;;;;;;5043587;28;19991;-67
2023/06/17 14:15:56;;;;;;;;;;;28.20;73.00;;;;;;5043025;28;20203;-68
2023/06/17 14:18:24;;;;;;;;;;;28.50;72.00;;;;;;5043564;28;19943;-68
2023/06/17 14:20:51;;;;;;;;;;;28.80;72.20;;;;;;5042806;28;19921;-68
2023/06/17 14:23:18;;;;;;;;;;;28.90;71.90;;;;;;5043025;28;20227;-69
2023/06/17 14:25:44;;;;;;;;;;;28.80;70.40;;;;;;5043199;28;19993;-68
2023/06/17 14:28:11;;;;;;;;;;;28.50;71.20;;;;;;5043388;28;19989;-68
2023/06/17 14:30:38;;;;;;;;;;;28.50;71.20;;;;;;5042705;28;20173;-69
2023/06/17 14:33:05;;;;;;;;;;;28.50;71.90;;;;;;5043245;28;19921;-68
2023/06/17 14:35:33;;;;;;;;;;;28.50;71.10;;;;;;5044922;28;20172;-68
2023/06/17 14:37:59;;;;;;;;;;;28.70;69.80;;;;;;5047233;28;19928;-68
2023/06/17 14:40:26;;;;;;;;;;;28.90;69.30;;;;;;5046828;28;20170;-68
2023/06/17 14:42:52;;;;;;;;;;;29.00;69.10;;;;;;5047497;28;19992;-68
2023/06/17 14:45:19;;;;;;;;;;;28.60;69.30;;;;;;5047212;28;19921;-67
2023/06/17 14:47:46;;;;;;;;;;;28.10;69.80;;;;;;5047310;28;19988;-68
2023/06/17 14:50:12;;;;;;;;;;;28.00;70.60;;;;;;5046701;28;19927;-68
2023/06/17 14:52:41;;;;;;;;;;;28.30;73.10;;;;;;5046896;28;19952;-68
2023/06/17 14:55:08;;;;;;;;;;;28.60;70.70;;;;;;5046997;28;19921;-68